createdAt,value
2018-12-31T00:02:45.382Z,8.00
2018-12-31T00:07:04.122Z,8.10
2018-12-31T00:11:23.927Z,8.10
2018-12-31T00:15:42.711Z,8.10
2018-12-31T00:20:01.581Z,8.10
2018-12-31T00:24:20.037Z,8.10
2018-12-31T00:28:40.616Z,8.00
2018-12-31T00:32:58.741Z,8.10
2018-12-31T00:37:17.277Z,8.10
2018-12-31T00:41:35.865Z,8.00
2018-12-31T00:45:53.966Z,8.00
2018-12-31T00:50:12.248Z,8.00
2018-12-31T00:54:30.552Z,8.00
2018-12-31T00:58:48.714Z,8.00
2018-12-31T01:03:06.941Z,7.90
2018-12-31T01:07:25.100Z,7.90
2018-12-31T01:11:43.506Z,7.90
2018-12-31T01:16:01.676Z,7.90
2018-12-31T01:20:19.897Z,7.90
2018-12-31T01:24:39.459Z,7.90
2018-12-31T01:28:58.101Z,7.90
2018-12-31T01:33:18.430Z,7.90
2018-12-31T01:37:36.970Z,7.90
2018-12-31T01:41:57.555Z,7.80
2018-12-31T01:46:16.390Z,7.80
2018-12-31T01:50:37.136Z,7.80
2018-12-31T01:54:55.687Z,7.80
2018-12-31T01:59:13.947Z,7.80
2018-12-31T02:03:33.726Z,7.70
2018-12-31T02:07:52.222Z,7.70
2018-12-31T02:12:10.528Z,7.70
2018-12-31T02:16:30.572Z,7.70
2018-12-31T02:20:48.673Z,7.70
2018-12-31T02:25:07.077Z,7.70
2018-12-31T02:29:25.172Z,7.60
2018-12-31T02:33:45.145Z,7.60
2018-12-31T02:38:03.917Z,7.70
2018-12-31T02:42:26.437Z,7.70
2018-12-31T02:46:45.096Z,7.70
2018-12-31T02:51:04.540Z,7.70
2018-12-31T02:55:24.031Z,7.70
2018-12-31T02:59:42.513Z,7.70
2018-12-31T03:04:02.527Z,7.80
2018-12-31T03:08:20.533Z,7.80
2018-12-31T03:12:38.865Z,7.90
2018-12-31T03:16:57.238Z,7.90
2018-12-31T03:21:16.763Z,8.00
2018-12-31T03:25:36.389Z,8.00
2018-12-31T03:29:54.486Z,8.00
2018-12-31T03:34:12.556Z,8.00
2018-12-31T03:38:32.003Z,8.00
2018-12-31T03:42:50.601Z,8.10
2018-12-31T03:47:09.065Z,8.00
2018-12-31T03:51:27.563Z,8.10
2018-12-31T03:55:45.816Z,8.00
2018-12-31T04:00:04.453Z,8.10
2018-12-31T04:04:22.662Z,8.10
2018-12-31T04:08:40.815Z,8.10
2018-12-31T04:12:59.200Z,8.10
2018-12-31T04:17:17.995Z,8.10
2018-12-31T04:21:36.480Z,8.10
2018-12-31T04:25:54.799Z,8.10
2018-12-31T04:30:13.094Z,8.10
2018-12-31T04:34:31.539Z,8.10
2018-12-31T04:38:49.896Z,8.10
2018-12-31T04:43:08.048Z,8.10
2018-12-31T04:47:26.871Z,8.20
2018-12-31T04:51:45.258Z,8.20
2018-12-31T04:56:03.825Z,8.20
2018-12-31T05:00:23.197Z,8.20
2018-12-31T05:04:42.884Z,8.20
2018-12-31T05:09:04.039Z,8.20
2018-12-31T05:13:25.451Z,8.20
2018-12-31T05:17:46.781Z,8.20
2018-12-31T05:22:06.090Z,8.20
2018-12-31T05:26:24.743Z,8.20
2018-12-31T05:30:43.194Z,8.20
2018-12-31T05:35:01.402Z,8.20
2018-12-31T05:39:23.037Z,8.20
2018-12-31T05:43:42.253Z,8.30
2018-12-31T05:48:01.415Z,8.30
2018-12-31T05:52:19.542Z,8.30
2018-12-31T05:56:38.027Z,8.30
2018-12-31T06:00:56.895Z,8.30
2018-12-31T06:05:16.092Z,8.30
2018-12-31T06:09:36.213Z,8.40
2018-12-31T06:13:54.376Z,8.40
2018-12-31T06:18:12.559Z,8.40
2018-12-31T06:22:30.690Z,8.40
2018-12-31T06:26:48.924Z,8.40
2018-12-31T06:31:07.349Z,8.40
2018-12-31T06:35:26.131Z,8.40
2018-12-31T06:39:44.378Z,8.40
2018-12-31T06:44:02.926Z,8.30
2018-12-31T06:48:21.090Z,8.30
2018-12-31T06:52:39.342Z,8.30
2018-12-31T06:56:59.287Z,8.30
2018-12-31T07:01:18.720Z,8.30
2018-12-31T07:05:38.345Z,8.30
2018-12-31T07:09:56.592Z,8.30
2018-12-31T07:14:15.099Z,8.30
2018-12-31T07:18:35.536Z,8.40
2018-12-31T07:22:53.831Z,8.40
2018-12-31T07:27:12.337Z,8.40
2018-12-31T07:31:30.585Z,8.30
2018-12-31T07:35:49.194Z,8.40
2018-12-31T07:40:08.487Z,8.40
2018-12-31T07:44:28.022Z,8.40
2018-12-31T07:48:46.564Z,8.40
2018-12-31T07:53:05.051Z,8.40
2018-12-31T07:57:24.640Z,8.40
2018-12-31T08:01:46.787Z,8.40
2018-12-31T08:06:05.242Z,8.40
2018-12-31T08:10:23.408Z,8.40
2018-12-31T08:14:41.873Z,8.40
2018-12-31T08:19:00.201Z,8.40
2018-12-31T08:23:18.319Z,8.50
2018-12-31T08:27:36.426Z,8.50
2018-12-31T08:31:55.147Z,8.50
2018-12-31T08:36:14.066Z,8.50
2018-12-31T08:40:32.854Z,8.60
2018-12-31T08:44:55.363Z,8.60
2018-12-31T08:49:13.696Z,8.60
2018-12-31T08:53:32.024Z,8.60
2018-12-31T08:57:50.679Z,8.70
2018-12-31T09:02:09.003Z,8.70
2018-12-31T09:06:36.114Z,8.70
2018-12-31T09:10:55.096Z,8.70
2018-12-31T09:15:14.675Z,8.70
2018-12-31T09:19:33.973Z,8.80
2018-12-31T09:23:52.834Z,8.80
2018-12-31T09:28:11.380Z,8.90
2018-12-31T09:32:29.952Z,9.00
2018-12-31T09:36:48.465Z,9.00
2018-12-31T09:41:07.041Z,9.10
2018-12-31T09:45:27.306Z,9.20
2018-12-31T09:49:45.582Z,9.30
2018-12-31T09:54:05.247Z,9.40
2018-12-31T09:58:23.506Z,9.40
2018-12-31T10:02:41.623Z,9.40
2018-12-31T10:07:02.671Z,9.40
2018-12-31T10:11:24.045Z,9.40
2018-12-31T10:15:42.741Z,9.40
2018-12-31T10:20:00.795Z,9.40
2018-12-31T10:24:18.922Z,9.40
2018-12-31T10:28:37.526Z,9.40
2018-12-31T10:32:57.202Z,9.50
2018-12-31T10:37:18.221Z,9.50
2018-12-31T10:41:36.530Z,9.50
2018-12-31T10:45:55.218Z,9.50
2018-12-31T10:50:15.794Z,9.50
2018-12-31T10:54:34.226Z,9.50
2018-12-31T10:58:52.757Z,9.50
2018-12-31T11:03:11.071Z,9.50
2018-12-31T11:07:29.326Z,9.60
2018-12-31T11:11:48.072Z,9.60
2018-12-31T11:16:12.031Z,9.70
2018-12-31T11:20:30.773Z,9.70
2018-12-31T11:24:49.828Z,9.80
2018-12-31T11:29:08.796Z,9.80
2018-12-31T11:33:26.977Z,9.90
2018-12-31T11:37:46.241Z,10.00
2018-12-31T11:42:04.380Z,10.00
2018-12-31T11:46:22.515Z,10.00
2018-12-31T11:50:41.064Z,10.10
2018-12-31T11:54:59.417Z,10.00
2018-12-31T11:59:17.722Z,10.00
2018-12-31T12:03:36.052Z,10.00
2018-12-31T12:07:54.560Z,10.00
2018-12-31T12:12:14.865Z,10.00
2018-12-31T12:16:33.930Z,10.00
2018-12-31T12:20:52.988Z,10.00
2018-12-31T12:25:11.540Z,10.00
2018-12-31T12:29:40.238Z,10.00
2018-12-31T12:33:58.889Z,10.00
2018-12-31T12:38:17.935Z,10.00
2018-12-31T12:42:37.396Z,9.90
2018-12-31T12:46:56.036Z,9.90
2018-12-31T12:51:15.089Z,9.90
2018-12-31T12:55:33.344Z,9.90
2018-12-31T12:59:51.841Z,9.90
2018-12-31T13:04:10.072Z,10.00
2018-12-31T13:08:28.300Z,10.00
2018-12-31T13:12:46.540Z,10.00
2018-12-31T13:17:05.072Z,10.00
2018-12-31T13:21:23.420Z,10.10
2018-12-31T13:25:42.064Z,10.20
2018-12-31T13:30:00.646Z,10.30
2018-12-31T13:34:19.417Z,10.40
2018-12-31T13:38:38.085Z,10.50
2018-12-31T13:42:56.353Z,10.60
2018-12-31T13:47:15.414Z,10.70
2018-12-31T13:51:33.586Z,10.70
2018-12-31T13:55:52.132Z,10.70
2018-12-31T14:00:11.235Z,10.60
2018-12-31T14:04:29.310Z,10.60
2018-12-31T14:08:47.460Z,10.60
2018-12-31T14:13:06.008Z,10.50
2018-12-31T14:17:24.615Z,10.40
2018-12-31T14:21:42.743Z,10.40
2018-12-31T14:26:00.829Z,10.30
2018-12-31T14:30:19.105Z,10.30
2018-12-31T14:34:37.232Z,10.30
2018-12-31T14:38:57.380Z,10.30
2018-12-31T14:43:16.368Z,10.40
2018-12-31T14:47:35.054Z,10.40
2018-12-31T14:51:53.415Z,10.40
2018-12-31T14:56:13.199Z,10.40
2018-12-31T15:00:32.917Z,10.40
2018-12-31T15:04:52.115Z,10.40
2018-12-31T15:09:13.230Z,10.40
2018-12-31T15:13:32.646Z,10.30
2018-12-31T15:17:51.269Z,10.30
2018-12-31T15:22:09.607Z,10.30
2018-12-31T15:26:28.359Z,10.30
2018-12-31T15:30:46.677Z,10.30
2018-12-31T15:35:07.552Z,10.20
2018-12-31T15:39:26.466Z,10.30
2018-12-31T15:43:46.592Z,10.30
2018-12-31T15:48:06.370Z,10.20
2018-12-31T15:52:24.846Z,10.20
2018-12-31T15:56:43.360Z,10.20
2018-12-31T16:01:03.220Z,10.20
2018-12-31T16:05:21.723Z,10.20
2018-12-31T16:09:40.525Z,10.20
2018-12-31T16:13:58.946Z,10.20
2018-12-31T16:18:17.401Z,10.20
2018-12-31T16:22:36.347Z,10.20
2018-12-31T16:26:55.374Z,10.20
2018-12-31T16:31:13.885Z,10.20
2018-12-31T16:35:34.094Z,10.10
2018-12-31T16:39:52.332Z,10.20
2018-12-31T16:44:10.653Z,10.20
2018-12-31T16:48:30.458Z,10.10
2018-12-31T16:52:48.966Z,10.10
2018-12-31T16:57:08.935Z,10.10
2018-12-31T17:01:27.422Z,10.10
2018-12-31T17:05:45.764Z,10.10
2018-12-31T17:10:05.068Z,10.10
2018-12-31T17:14:23.302Z,10.10
2018-12-31T17:18:41.887Z,10.10
2018-12-31T17:22:59.996Z,10.10
2018-12-31T17:27:21.181Z,10.10
2018-12-31T17:31:39.789Z,10.00
2018-12-31T17:35:59.450Z,10.00
2018-12-31T17:40:18.157Z,10.00
2018-12-31T17:44:37.511Z,10.00
2018-12-31T17:48:55.685Z,10.00
2018-12-31T17:53:13.848Z,10.00
2018-12-31T17:57:32.495Z,10.00
2018-12-31T18:01:50.811Z,9.90
2018-12-31T18:06:08.938Z,10.00
2018-12-31T18:10:28.071Z,10.00
2018-12-31T18:14:46.356Z,9.90
2018-12-31T18:19:05.032Z,10.00
2018-12-31T18:23:23.271Z,10.00
2018-12-31T18:27:41.527Z,10.00
2018-12-31T18:31:59.800Z,10.00
2018-12-31T18:36:18.055Z,10.00
2018-12-31T18:40:36.340Z,10.00
2018-12-31T18:44:54.852Z,10.00
2018-12-31T18:49:12.980Z,10.00
2018-12-31T18:53:31.146Z,10.00
2018-12-31T18:57:49.379Z,10.00
2018-12-31T19:02:07.901Z,10.00
2018-12-31T19:06:26.347Z,9.90
2018-12-31T19:10:44.643Z,9.90
2018-12-31T19:15:03.135Z,9.80
2018-12-31T19:19:21.366Z,9.90
2018-12-31T19:23:39.579Z,9.80
2018-12-31T19:27:58.060Z,9.80
2018-12-31T19:32:16.448Z,9.80
2018-12-31T19:36:34.499Z,9.80
2018-12-31T19:40:53.025Z,9.80
2018-12-31T19:45:11.337Z,9.80
2018-12-31T19:49:29.875Z,9.80
2018-12-31T19:53:48.719Z,9.80
2018-12-31T19:58:07.160Z,9.70
2018-12-31T20:02:25.500Z,9.70
2018-12-31T20:06:43.611Z,9.70
2018-12-31T20:11:01.808Z,9.70
2018-12-31T20:15:19.992Z,9.70
2018-12-31T20:19:38.642Z,9.70
2018-12-31T20:23:56.779Z,9.70
2018-12-31T20:28:14.991Z,9.70
2018-12-31T20:32:33.360Z,9.70
2018-12-31T20:36:51.887Z,9.70
2018-12-31T20:41:10.518Z,9.70
2018-12-31T20:45:29.117Z,9.70
2018-12-31T20:49:47.345Z,9.70
2018-12-31T20:54:06.329Z,9.70
2018-12-31T20:58:24.415Z,9.70
2018-12-31T21:02:43.092Z,9.70
2018-12-31T21:07:01.683Z,9.70
2018-12-31T21:11:20.214Z,9.70
2018-12-31T21:15:38.466Z,9.70
2018-12-31T21:19:57.092Z,9.70
2018-12-31T21:24:15.360Z,9.70
2018-12-31T21:28:33.703Z,9.60
2018-12-31T21:32:51.988Z,9.60
2018-12-31T21:37:10.128Z,9.60
2018-12-31T21:41:28.183Z,9.60
2018-12-31T21:45:46.972Z,9.60
2018-12-31T21:50:05.424Z,9.60
2018-12-31T21:54:23.589Z,9.60
2018-12-31T21:58:41.708Z,9.60
2018-12-31T22:02:59.892Z,9.50
2018-12-31T22:07:18.062Z,9.50
2018-12-31T22:11:36.483Z,9.50
2018-12-31T22:15:54.823Z,9.50
2018-12-31T22:20:13.151Z,9.50
2018-12-31T22:24:31.629Z,9.60
2018-12-31T22:28:49.933Z,9.60
2018-12-31T22:33:08.664Z,9.60
2018-12-31T22:37:26.844Z,9.60
2018-12-31T22:41:45.052Z,9.60
2018-12-31T22:46:03.158Z,9.60
2018-12-31T22:50:21.352Z,9.60
2018-12-31T22:54:39.564Z,9.60
2018-12-31T22:58:57.865Z,9.60
2018-12-31T23:03:16.333Z,9.60
2018-12-31T23:07:35.886Z,9.60
2018-12-31T23:11:54.261Z,9.50
2018-12-31T23:16:17.876Z,9.50
2018-12-31T23:20:36.607Z,9.50
2018-12-31T23:24:55.790Z,9.50
2018-12-31T23:29:14.863Z,9.50
2018-12-31T23:33:33.302Z,9.50
2018-12-31T23:37:51.722Z,9.50
2018-12-31T23:42:09.935Z,9.60
2018-12-31T23:46:28.508Z,9.60
2018-12-31T23:50:46.813Z,9.60
2018-12-31T23:55:06.215Z,9.70
2018-12-31T23:59:24.475Z,9.70
